Time;durP1;ratioP1;P1;durP2;ratioP2;P2;SDS_P1;SDS_P2;PMS_P1;PMS_P2;Temp;Humidity;BMP_temperature;BMP_pressure;BME280_temperature;BME280_humidity;BME280_pressure;Samples;Min_cycle;Max_cycle;Signal;HPM_P1;HPM_P2
2023/06/15 00:03:19;;;;;;;23.40;13.30;;;;;;;;;;10415586;28;20025;-88
2023/06/15 00:08:20;;;;;;;21.30;12.98;;;;;;;;;;10428952;28;20045;-89
2023/06/15 00:13:21;;;;;;;23.55;14.05;;;;;;;;;;10427297;28;20092;-90
2023/06/15 00:18:26;;;;;;;28.25;15.43;;;;;;;;;;10423310;28;20075;-88
2023/06/15 00:23:27;;;;;;;31.75;14.60;;;;;;;;;;10444725;28;20395;-87
2023/06/15 00:28:28;;;;;;;120.32;24.15;;;;;;;;;;10428741;28;20090;-88
2023/06/15 00:33:29;;;;;;;74.00;19.67;;;;;;;;;;10424762;28;20037;-88
2023/06/15 00:38:30;;;;;;;41.28;16.33;;;;;;;;;;10405502;28;20754;-89
2023/06/15 00:43:31;;;;;;;34.22;15.60;;;;;;;;;;10415868;28;20978;-88
2023/06/15 00:48:32;;;;;;;33.75;16.33;;;;;;;;;;10427428;28;20435;-87
2023/06/15 00:53:33;;;;;;;53.65;17.27;;;;;;;;;;10427945;28;20597;-87
2023/06/15 00:58:34;;;;;;;44.63;16.33;;;;;;;;;;10419316;28;20033;-88
2023/06/15 01:03:35;;;;;;;22.63;12.90;;;;;;;;;;10426139;28;20171;-88
2023/06/15 01:08:37;;;;;;;20.13;13.25;;;;;;;;;;10445393;28;20488;-88
2023/06/15 01:13:38;;;;;;;21.25;13.13;;;;;;;;;;10419604;28;20033;-88
2023/06/15 01:18:46;;;;;;;24.77;15.13;;;;;;;;;;10427318;28;20029;-89
2023/06/15 01:23:52;;;;;;;26.48;13.85;;;;;;;;;;10420884;28;20081;-89
2023/06/15 01:28:54;;;;;;;42.00;16.30;;;;;;;;;;10414243;28;20041;-88
2023/06/15 01:33:55;;;;;;;29.95;16.23;;;;;;;;;;10426497;28;20033;-88
2023/06/15 01:38:57;;;;;;;29.02;15.15;;;;;;;;;;10424782;28;20711;-89
2023/06/15 01:43:59;;;;;;;24.40;13.15;;;;;;;;;;10425073;28;20403;-87
2023/06/15 01:49:01;;;;;;;23.23;12.57;;;;;;;;;;10425991;28;20055;-88
2023/06/15 01:54:02;;;;;;;23.50;13.38;;;;;;;;;;10408802;28;20033;-88
2023/06/15 01:59:03;;;;;;;23.80;13.60;;;;;;;;;;10412951;28;20715;-89
2023/06/15 02:04:04;;;;;;;25.40;14.20;;;;;;;;;;10443930;28;20025;-87
2023/06/15 02:09:05;;;;;;;20.80;13.27;;;;;;;;;;10426104;28;20520;-88
2023/06/15 02:14:06;;;;;;;24.67;14.00;;;;;;;;;;10425317;28;20451;-88
2023/06/15 02:19:07;;;;;;;27.92;13.48;;;;;;;;;;10410771;28;20037;-88
2023/06/15 02:24:08;;;;;;;22.70;14.07;;;;;;;;;;10433472;28;20057;-88
2023/06/15 02:29:09;;;;;;;32.35;15.73;;;;;;;;;;10421739;28;20057;-89
2023/06/15 02:34:10;;;;;;;26.52;15.25;;;;;;;;;;10426905;28;20119;-89
2023/06/15 02:39:12;;;;;;;22.90;13.07;;;;;;;;;;10432758;28;20033;-88
2023/06/15 02:44:14;;;;;;;26.55;14.50;;;;;;;;;;10430395;28;20120;-89
2023/06/15 02:49:18;;;;;;;21.65;13.48;;;;;;;;;;10420098;28;20155;-89
2023/06/15 02:54:20;;;;;;;36.03;16.02;;;;;;;;;;10432545;28;20053;-87
2023/06/15 02:59:25;;;;;;;94.07;18.42;;;;;;;;;;10422426;28;20045;-88
2023/06/15 03:04:27;;;;;;;69.47;16.70;;;;;;;;;;10417432;28;20116;-88
2023/06/15 03:09:28;;;;;;;18.75;12.68;;;;;;;;;;10391625;28;20037;-90
2023/06/15 03:14:29;;;;;;;21.48;13.07;;;;;;;;;;10403198;28;20388;-86
2023/06/15 03:19:30;;;;;;;17.85;11.80;;;;;;;;;;10440858;28;20027;-87
2023/06/15 03:24:32;;;;;;;19.02;12.52;;;;;;;;;;10421571;28;20037;-86
2023/06/15 03:29:36;;;;;;;20.85;13.55;;;;;;;;;;10395375;28;20045;-89
2023/06/15 03:34:37;;;;;;;20.42;12.63;;;;;;;;;;10431115;28;20061;-89
2023/06/15 03:39:38;;;;;;;21.52;13.35;;;;;;;;;;10418629;28;20045;-87
2023/06/15 03:44:39;;;;;;;18.98;12.43;;;;;;;;;;10407994;28;20037;-86
2023/06/15 03:49:40;;;;;;;22.70;13.63;;;;;;;;;;10429783;28;20041;-88
2023/06/15 03:54:44;;;;;;;22.08;13.55;;;;;;;;;;10422861;28;20039;-91
2023/06/15 03:59:45;;;;;;;23.48;13.20;;;;;;;;;;10391284;28;20033;-87
2023/06/15 04:04:46;;;;;;;23.98;15.13;;;;;;;;;;10410973;28;20526;-87
2023/06/15 04:09:47;;;;;;;21.33;14.88;;;;;;;;;;10406906;28;20029;-90
2023/06/15 04:14:48;;;;;;;23.13;15.68;;;;;;;;;;10407080;28;20033;-87
2023/06/15 04:19:49;;;;;;;20.02;14.48;;;;;;;;;;10415834;28;20041;-88
2023/06/15 04:24:51;;;;;;;24.50;15.27;;;;;;;;;;10410905;28;20107;-88
2023/06/15 04:29:52;;;;;;;17.05;12.00;;;;;;;;;;10440053;28;20056;-89
2023/06/15 04:34:54;;;;;;;20.67;13.88;;;;;;;;;;10446596;28;20032;-89
2023/06/15 04:39:59;;;;;;;18.15;13.63;;;;;;;;;;10428367;28;20585;-89
2023/06/15 04:45:00;;;;;;;18.85;13.75;;;;;;;;;;10446274;28;20048;-87
2023/06/15 04:50:03;;;;;;;18.33;12.68;;;;;;;;;;10427613;28;20037;-88
2023/06/15 04:55:04;;;;;;;21.33;14.73;;;;;;;;;;10427666;28;20755;-90
2023/06/15 05:00:10;;;;;;;17.23;12.07;;;;;;;;;;10427432;28;20456;-87
2023/06/15 05:05:11;;;;;;;21.27;13.63;;;;;;;;;;10427314;28;20033;-88
2023/06/15 05:10:12;;;;;;;21.48;13.68;;;;;;;;;;10427636;28;20131;-88
2023/06/15 05:15:14;;;;;;;21.20;14.68;;;;;;;;;;10445586;28;20436;-88
2023/06/15 05:20:15;;;;;;;20.38;14.52;;;;;;;;;;10445472;28;20104;-87
2023/06/15 05:25:16;;;;;;;19.10;14.00;;;;;;;;;;10427361;28;20096;-86
2023/06/15 05:30:17;;;;;;;20.25;14.77;;;;;;;;;;10442698;28;20530;-87
2023/06/15 05:35:18;;;;;;;23.75;15.35;;;;;;;;;;10415651;28;20045;-89
2023/06/15 05:40:19;;;;;;;18.52;13.52;;;;;;;;;;10426507;28;20121;-88
2023/06/15 05:45:20;;;;;;;22.23;15.43;;;;;;;;;;10445267;28;20388;-88
2023/06/15 05:50:21;;;;;;;21.65;16.60;;;;;;;;;;10425977;28;20033;-88
2023/06/15 05:55:23;;;;;;;22.15;15.18;;;;;;;;;;10426045;28;20033;-88
2023/06/15 06:00:25;;;;;;;22.17;13.93;;;;;;;;;;10444595;28;20028;-88
2023/06/15 06:05:26;;;;;;;20.45;13.18;;;;;;;;;;10444072;28;20439;-89
2023/06/15 06:10:27;;;;;;;19.05;12.15;;;;;;;;;;10428823;28;20043;-87
2023/06/15 06:15:29;;;;;;;18.58;11.57;;;;;;;;;;10452368;28;20049;-86
2023/06/15 06:20:32;;;;;;;25.10;14.02;;;;;;;;;;10451730;28;20029;-88
2023/06/15 06:25:33;;;;;;;25.98;15.98;;;;;;;;;;10448915;28;20052;-88
2023/06/15 06:30:34;;;;;;;29.40;17.40;;;;;;;;;;10441258;28;20033;-86
2023/06/15 06:35:35;;;;;;;29.13;17.20;;;;;;;;;;10433037;28;20648;-86
2023/06/15 06:40:36;;;;;;;27.38;18.00;;;;;;;;;;10432766;28;20030;-86
2023/06/15 06:45:37;;;;;;;24.35;16.02;;;;;;;;;;10419825;28;20568;-87
2023/06/15 06:50:38;;;;;;;24.45;15.77;;;;;;;;;;10451131;28;20052;-86
2023/06/15 06:55:39;;;;;;;21.83;15.68;;;;;;;;;;10432519;28;20307;-87
2023/06/15 07:00:41;;;;;;;19.40;14.10;;;;;;;;;;10415983;28;20026;-88
2023/06/15 07:05:42;;;;;;;19.67;13.20;;;;;;;;;;10417624;28;20116;-87
2023/06/15 07:10:43;;;;;;;18.75;12.60;;;;;;;;;;10391350;28;20068;-88
2023/06/15 07:15:44;;;;;;;15.68;11.30;;;;;;;;;;10408616;28;20076;-89
2023/06/15 07:20:45;;;;;;;13.90;9.88;;;;;;;;;;10402847;28;20500;-87
2023/06/15 07:25:46;;;;;;;11.63;9.10;;;;;;;;;;10409173;28;20072;-87
2023/06/15 07:30:49;;;;;;;12.45;10.13;;;;;;;;;;10426351;28;20500;-87
2023/06/15 07:35:50;;;;;;;10.45;8.50;;;;;;;;;;10430838;28;20071;-87
2023/06/15 07:40:51;;;;;;;11.68;8.90;;;;;;;;;;10435504;28;20086;-88
2023/06/15 07:45:52;;;;;;;13.23;8.95;;;;;;;;;;10425816;28;20086;-88
2023/06/15 07:50:53;;;;;;;12.52;9.02;;;;;;;;;;10412632;28;20052;-89
2023/06/15 07:55:54;;;;;;;11.20;9.18;;;;;;;;;;10442544;28;20035;-88
2023/06/15 08:00:56;;;;;;;13.30;10.02;;;;;;;;;;10411372;28;20069;-88
2023/06/15 08:05:57;;;;;;;13.32;9.75;;;;;;;;;;10425699;28;20040;-88
2023/06/15 08:10:58;;;;;;;16.70;11.35;;;;;;;;;;10428072;28;20064;-89
2023/06/15 08:16:00;;;;;;;13.73;10.07;;;;;;;;;;10419259;28;20032;-87
2023/06/15 08:21:01;;;;;;;13.10;10.48;;;;;;;;;;10418181;28;20033;-88
2023/06/15 08:26:02;;;;;;;14.77;9.70;;;;;;;;;;10415394;28;20069;-88
2023/06/15 08:31:03;;;;;;;11.95;9.93;;;;;;;;;;10407400;28;20045;-89
2023/06/15 08:36:04;;;;;;;14.00;10.23;;;;;;;;;;10417125;28;20043;-88
2023/06/15 08:41:05;;;;;;;14.93;11.35;;;;;;;;;;10401777;28;20059;-88
2023/06/15 08:46:06;;;;;;;16.55;11.88;;;;;;;;;;10413823;28;20028;-88
2023/06/15 08:51:12;;;;;;;16.48;12.52;;;;;;;;;;10405674;28;20224;-90
2023/06/15 08:56:13;;;;;;;19.33;14.50;;;;;;;;;;10406690;28;20036;-88
2023/06/15 09:01:14;;;;;;;18.00;13.38;;;;;;;;;;10404728;28;20120;-88
2023/06/15 09:06:15;;;;;;;19.17;15.23;;;;;;;;;;10435208;28;20071;-86
2023/06/15 09:11:17;;;;;;;19.00;15.27;;;;;;;;;;10427269;28;20051;-88
2023/06/15 09:16:19;;;;;;;16.95;13.52;;;;;;;;;;10423145;28;20504;-87
2023/06/15 09:21:22;;;;;;;14.25;12.10;;;;;;;;;;10410831;28;20033;-87
2023/06/15 09:26:23;;;;;;;15.35;11.77;;;;;;;;;;10432299;28;20045;-89
2023/06/15 09:31:32;;;;;;;16.08;11.95;;;;;;;;;;10425809;28;20041;-87
2023/06/15 09:36:34;;;;;;;14.55;11.10;;;;;;;;;;10443883;28;20068;-89
2023/06/15 09:41:57;;;;;;;15.80;11.77;;;;;;;;;;10423478;28;20025;-88
2023/06/15 09:46:59;;;;;;;14.90;11.85;;;;;;;;;;10427996;28;20290;-87
2023/06/15 09:52:00;;;;;;;12.95;11.05;;;;;;;;;;10411583;28;20033;-88
2023/06/15 09:57:02;;;;;;;17.20;12.15;;;;;;;;;;10404426;28;20041;-88
2023/06/15 10:02:05;;;;;;;14.90;10.90;;;;;;;;;;10404810;28;20075;-87
2023/06/15 10:07:07;;;;;;;13.57;10.75;;;;;;;;;;10415519;28;20785;-88
2023/06/15 10:12:17;;;;;;;11.73;10.07;;;;;;;;;;10441282;28;20723;-88
2023/06/15 10:17:20;;;;;;;13.57;10.07;;;;;;;;;;10429307;28;20424;-89
2023/06/15 10:22:23;;;;;;;12.50;9.45;;;;;;;;;;10426461;28;20582;-88
2023/06/15 10:27:25;;;;;;;18.35;10.05;;;;;;;;;;10430688;28;20087;-88
2023/06/15 10:32:31;;;;;;;12.77;9.40;;;;;;;;;;10425620;28;20136;-89
2023/06/15 10:38:04;;;;;;;13.02;9.77;;;;;;;;;;10425292;28;20048;-92
2023/06/15 10:43:05;;;;;;;15.32;10.73;;;;;;;;;;10376197;28;20680;-89
2023/06/15 10:48:06;;;;;;;13.70;11.10;;;;;;;;;;10412582;28;20034;-88
2023/06/15 10:53:20;;;;;;;12.20;10.45;;;;;;;;;;10427021;28;20472;-88
2023/06/15 10:58:22;;;;;;;14.20;10.82;;;;;;;;;;10411735;28;20044;-89
2023/06/15 11:03:43;;;;;;;14.13;10.77;;;;;;;;;;10409942;28;20542;-91
2023/06/15 11:08:54;;;;;;;14.60;10.60;;;;;;;;;;10395865;28;20131;-90
2023/06/15 11:13:55;;;;;;;20.80;11.77;;;;;;;;;;10413321;28;20036;-89
2023/06/15 11:19:11;;;;;;;10.45;8.75;;;;;;;;;;10433600;28;20060;-88
2023/06/15 11:24:13;;;;;;;12.48;9.13;;;;;;;;;;10419501;28;20057;-89
2023/06/15 11:29:22;;;;;;;12.75;9.85;;;;;;;;;;10430891;28;20067;-87
2023/06/15 11:34:23;;;;;;;12.98;9.63;;;;;;;;;;10416278;28;20029;-90
2023/06/15 11:39:25;;;;;;;14.50;10.20;;;;;;;;;;10419240;28;20108;-89
2023/06/15 11:44:27;;;;;;;13.73;10.20;;;;;;;;;;10428520;28;20032;-88
2023/06/15 11:49:36;;;;;;;12.85;9.45;;;;;;;;;;10421321;28;20037;-89
2023/06/15 11:54:38;;;;;;;13.95;10.50;;;;;;;;;;10405474;28;20057;-87
2023/06/15 11:59:39;;;;;;;12.75;9.68;;;;;;;;;;10424990;28;20041;-88
2023/06/15 12:04:41;;;;;;;13.27;10.05;;;;;;;;;;10442346;28;20786;-87
2023/06/15 12:09:42;;;;;;;13.85;10.65;;;;;;;;;;10437675;28;20036;-88
2023/06/15 12:14:46;;;;;;;16.75;11.60;;;;;;;;;;10409771;28;20724;-86
2023/06/15 12:19:47;;;;;;;14.43;11.30;;;;;;;;;;10404707;28;20032;-91
2023/06/15 12:24:48;;;;;;;11.55;10.35;;;;;;;;;;10422186;28;20078;-87
2023/06/15 12:29:53;;;;;;;14.88;11.68;;;;;;;;;;10432283;28;20053;-88
2023/06/15 12:34:54;;;;;;;17.10;11.60;;;;;;;;;;10414736;28;20091;-88
2023/06/15 12:39:55;;;;;;;15.30;11.77;;;;;;;;;;10421984;28;20035;-87
2023/06/15 12:44:56;;;;;;;15.10;11.88;;;;;;;;;;10414809;28;20102;-87
2023/06/15 12:49:59;;;;;;;15.32;11.73;;;;;;;;;;10418799;28;20036;-88
2023/06/15 12:55:00;;;;;;;15.48;12.30;;;;;;;;;;10416560;28;20057;-90
2023/06/15 13:00:01;;;;;;;17.67;12.20;;;;;;;;;;10402501;28;20030;-85
2023/06/15 13:05:04;;;;;;;13.30;10.95;;;;;;;;;;10431796;28;20100;-86
2023/06/15 13:10:06;;;;;;;13.15;10.60;;;;;;;;;;10422828;28;20048;-87
2023/06/15 13:15:08;;;;;;;14.63;11.23;;;;;;;;;;10402781;28;20036;-88
2023/06/15 13:20:10;;;;;;;12.52;10.18;;;;;;;;;;10437474;28;20400;-86
2023/06/15 13:25:11;;;;;;;13.20;10.15;;;;;;;;;;10403680;28;20446;-87
2023/06/15 13:30:13;;;;;;;15.65;10.35;;;;;;;;;;10407313;28;20049;-88
2023/06/15 13:35:43;;;;;;;;;;;;;;;;;;;;;
2023/06/15 13:40:53;;;;;;;11.68;6.97;;;;;;;;;;10423409;28;20503;-85
2023/06/15 13:45:55;;;;;;;9.55;8.05;;;;;;;;;;10406231;28;20040;-85
2023/06/15 13:50:56;;;;;;;9.38;7.47;;;;;;;;;;10416623;28;20697;-86
2023/06/15 13:55:57;;;;;;;9.95;8.02;;;;;;;;;;10414100;28;20565;-86
2023/06/15 14:00:58;;;;;;;10.95;7.60;;;;;;;;;;10420221;28;20036;-86
2023/06/15 14:05:59;;;;;;;10.43;7.65;;;;;;;;;;10412167;28;20072;-85
2023/06/15 14:11:00;;;;;;;8.40;6.93;;;;;;;;;;10422425;28;20140;-86
2023/06/15 14:16:30;;;;;;;8.27;5.93;;;;;;;;;;10437154;28;20061;-86
2023/06/15 14:22:02;;;;;;;6.97;4.93;;;;;;;;;;10408963;28;20029;-88
2023/06/15 14:27:19;;;;;;;6.25;5.32;;;;;;;;;;10383169;28;20508;-88
2023/06/15 14:32:20;;;;;;;6.10;4.80;;;;;;;;;;10373838;28;20049;-87
2023/06/15 14:37:21;;;;;;;6.15;5.38;;;;;;;;;;10385998;28;20076;-87
2023/06/15 15:09:45;;;;;;;8.18;5.68;;;;;;;;;;11014480;23;20045;-88
2023/06/15 15:46:42;;;;;;;5.07;4.40;;;;;;;;;;12236585;22;20057;-90
2023/06/15 16:02:35;;;;;;;6.18;4.72;;;;;;;;;;12649703;23;20025;-88
2023/06/15 16:07:40;;;;;;;6.47;4.22;;;;;;;;;;10330730;28;20042;-86
2023/06/15 16:12:41;;;;;;;4.82;4.28;;;;;;;;;;10324493;28;20819;-86
2023/06/15 16:17:42;;;;;;;6.15;4.38;;;;;;;;;;10329215;28;20046;-85
2023/06/15 16:23:12;;;;;;;4.97;4.40;;;;;;;;;;10340811;28;20150;-88
2023/06/15 16:28:23;;;;;;;8.50;4.60;;;;;;;;;;10361604;28;20128;-86
2023/06/15 16:33:25;;;;;;;6.88;4.70;;;;;;;;;;10376613;28;20129;-86
2023/06/15 16:38:54;;;;;;;5.78;4.63;;;;;;;;;;10332008;28;20077;-86
2023/06/15 16:43:55;;;;;;;5.25;4.68;;;;;;;;;;10386212;28;20397;-85
2023/06/15 16:48:56;;;;;;;7.10;4.70;;;;;;;;;;10370749;28;20420;-87
2023/06/15 16:53:58;;;;;;;5.15;4.53;;;;;;;;;;10350234;28;20047;-86
2023/06/15 16:58:59;;;;;;;5.93;4.18;;;;;;;;;;10322655;28;20030;-86
2023/06/15 17:04:00;;;;;;;5.00;4.50;;;;;;;;;;10323941;28;20158;-86
2023/06/15 17:09:01;;;;;;;6.20;4.13;;;;;;;;;;10327140;28;20525;-86
2023/06/15 17:14:02;;;;;;;4.50;4.00;;;;;;;;;;10343443;28;20035;-86
2023/06/15 17:25:05;;;;;;;8.10;4.70;;;;;;;;;;10329091;28;20045;-88
2023/06/15 17:30:06;;;;;;;7.78;4.88;;;;;;;;;;10339332;28;20129;-87
2023/06/15 17:35:08;;;;;;;7.32;5.00;;;;;;;;;;10357317;28;20060;-86
2023/06/15 17:40:09;;;;;;;5.90;4.50;;;;;;;;;;10336980;28;20025;-86
2023/06/15 17:45:11;;;;;;;7.03;5.20;;;;;;;;;;10342863;28;20030;-86
2023/06/15 17:50:12;;;;;;;5.97;4.40;;;;;;;;;;10337708;28;20054;-85
2023/06/15 17:55:13;;;;;;;9.00;5.47;;;;;;;;;;10335936;28;20117;-85
2023/06/15 18:00:14;;;;;;;6.75;5.18;;;;;;;;;;10330936;28;20506;-86
2023/06/15 18:05:16;;;;;;;5.28;4.75;;;;;;;;;;10337413;28;20057;-86
2023/06/15 18:10:17;;;;;;;7.55;5.43;;;;;;;;;;10332942;28;20049;-86
2023/06/15 18:15:21;;;;;;;8.55;5.38;;;;;;;;;;10338674;28;20169;-86
2023/06/15 18:20:28;;;;;;;7.57;5.30;;;;;;;;;;10335360;28;20026;-88
2023/06/15 18:26:05;;;;;;;6.65;5.18;;;;;;;;;;10342932;28;20417;-85
2023/06/15 18:31:06;;;;;;;11.07;6.30;;;;;;;;;;10329095;28;20056;-89
2023/06/15 18:36:07;;;;;;;9.32;5.80;;;;;;;;;;10331714;28;20138;-86
2023/06/15 18:41:08;;;;;;;10.85;6.35;;;;;;;;;;10337874;28;20037;-88
2023/06/15 18:46:09;;;;;;;11.85;6.03;;;;;;;;;;10346241;28;20033;-86
2023/06/15 18:51:10;;;;;;;9.20;5.97;;;;;;;;;;10346486;28;20038;-87
2023/06/15 18:56:11;;;;;;;8.63;5.68;;;;;;;;;;10336528;28;20486;-88
2023/06/15 19:01:12;;;;;;;9.02;5.50;;;;;;;;;;10332843;28;20125;-86
2023/06/15 19:06:13;;;;;;;7.78;5.00;;;;;;;;;;10326427;28;20039;-88
2023/06/15 19:11:30;;;;;;;8.32;5.85;;;;;;;;;;10345745;28;20077;-88
2023/06/15 19:16:34;;;;;;;9.15;5.60;;;;;;;;;;10335131;28;20034;-89
2023/06/15 19:21:37;;;;;;;10.88;5.22;;;;;;;;;;10339729;28;20030;-86
2023/06/15 19:26:38;;;;;;;6.80;4.80;;;;;;;;;;10330858;28;20700;-87
2023/06/15 19:32:03;;;;;;;7.00;5.07;;;;;;;;;;10340736;28;20046;-87
2023/06/15 19:37:04;;;;;;;10.23;5.15;;;;;;;;;;10324477;28;20038;-87
2023/06/15 19:42:06;;;;;;;8.30;5.35;;;;;;;;;;10324694;28;20034;-88
2023/06/15 19:47:07;;;;;;;8.40;5.32;;;;;;;;;;10324923;28;20452;-88
2023/06/15 19:52:08;;;;;;;8.80;5.47;;;;;;;;;;10320537;28;20042;-87
2023/06/15 19:57:10;;;;;;;9.48;5.80;;;;;;;;;;10337834;28;20159;-87
2023/06/15 20:02:11;;;;;;;7.88;5.82;;;;;;;;;;10333396;28;20129;-88
2023/06/15 20:07:12;;;;;;;9.23;6.15;;;;;;;;;;10331134;28;20718;-88
2023/06/15 20:12:13;;;;;;;9.02;5.82;;;;;;;;;;10332406;28;20120;-87
2023/06/15 20:17:15;;;;;;;9.60;6.63;;;;;;;;;;10323685;28;20113;-87
2023/06/15 20:22:16;;;;;;;8.82;5.88;;;;;;;;;;10325393;28;20031;-87
2023/06/15 20:27:17;;;;;;;8.05;6.13;;;;;;;;;;10322388;28;20516;-88
2023/06/15 20:32:24;;;;;;;7.72;6.18;;;;;;;;;;10335175;28;20077;-88
2023/06/15 20:37:25;;;;;;;8.68;6.38;;;;;;;;;;10320892;28;20045;-88
2023/06/15 20:42:26;;;;;;;11.38;6.93;;;;;;;;;;10323137;28;20088;-88
2023/06/15 20:47:27;;;;;;;10.70;6.95;;;;;;;;;;10320797;28;20038;-86
2023/06/15 20:52:28;;;;;;;12.63;6.97;;;;;;;;;;10315176;28;20537;-87
2023/06/15 20:57:29;;;;;;;13.98;6.38;;;;;;;;;;10324134;28;20022;-88
2023/06/15 21:02:30;;;;;;;6.90;5.75;;;;;;;;;;10339460;28;20033;-87
2023/06/15 21:07:32;;;;;;;8.30;6.57;;;;;;;;;;10320989;28;20112;-87
2023/06/15 21:12:34;;;;;;;8.75;5.95;;;;;;;;;;10332582;28;20469;-88
2023/06/15 21:17:35;;;;;;;12.82;8.30;;;;;;;;;;10321854;28;20038;-87
2023/06/15 21:22:36;;;;;;;9.85;6.70;;;;;;;;;;10321539;28;20022;-88
2023/06/15 21:27:38;;;;;;;17.50;9.57;;;;;;;;;;10322403;28;20347;-87
2023/06/15 21:32:39;;;;;;;16.58;8.85;;;;;;;;;;10317866;28;20030;-88
2023/06/15 21:37:40;;;;;;;12.18;7.70;;;;;;;;;;10322255;28;20030;-86
2023/06/15 21:42:41;;;;;;;9.93;6.80;;;;;;;;;;10337072;28;20041;-87
2023/06/15 21:47:45;;;;;;;10.38;7.68;;;;;;;;;;10337865;28;20038;-89
2023/06/15 21:52:47;;;;;;;10.23;7.45;;;;;;;;;;10345852;28;20888;-89
2023/06/15 21:57:49;;;;;;;12.63;6.95;;;;;;;;;;10335687;28;20474;-86
2023/06/15 22:02:50;;;;;;;10.32;7.50;;;;;;;;;;10339258;28;20054;-88
2023/06/15 22:07:53;;;;;;;10.13;8.25;;;;;;;;;;10339090;28;20054;-87
2023/06/15 22:12:54;;;;;;;11.18;8.13;;;;;;;;;;10337022;28;20031;-88
2023/06/15 22:17:55;;;;;;;11.20;7.68;;;;;;;;;;10323108;28;20479;-86
2023/06/15 22:22:57;;;;;;;12.95;9.15;;;;;;;;;;10335059;28;20026;-87
2023/06/15 22:27:58;;;;;;;10.60;7.78;;;;;;;;;;10335319;28;20026;-86
2023/06/15 22:32:59;;;;;;;12.05;7.82;;;;;;;;;;10333351;28;20513;-88
2023/06/15 22:38:00;;;;;;;12.23;8.32;;;;;;;;;;10334717;28;20057;-87
2023/06/15 22:43:01;;;;;;;10.98;7.90;;;;;;;;;;10338948;28;20045;-86
2023/06/15 22:48:04;;;;;;;11.27;7.25;;;;;;;;;;10334289;28;20042;-88
2023/06/15 22:53:05;;;;;;;9.52;6.28;;;;;;;;;;10331934;28;20038;-86
2023/06/15 22:58:06;;;;;;;8.80;6.00;;;;;;;;;;10332383;28;20042;-86
2023/06/15 23:03:07;;;;;;;9.10;6.10;;;;;;;;;;10326499;28;20120;-87
2023/06/15 23:08:09;;;;;;;12.48;6.47;;;;;;;;;;10334450;28;20042;-86
2023/06/15 23:13:10;;;;;;;8.82;6.63;;;;;;;;;;10345899;28;20477;-87
2023/06/15 23:18:12;;;;;;;8.55;6.40;;;;;;;;;;10327457;28;20137;-89
2023/06/15 23:23:14;;;;;;;14.00;7.03;;;;;;;;;;10326021;28;20030;-86
2023/06/15 23:28:19;;;;;;;9.05;6.72;;;;;;;;;;10338650;28;20036;-87
2023/06/15 23:33:20;;;;;;;9.52;6.75;;;;;;;;;;10325653;28;20045;-87
2023/06/15 23:38:21;;;;;;;10.85;7.07;;;;;;;;;;10334141;28;20038;-88
2023/06/15 23:43:22;;;;;;;10.43;8.05;;;;;;;;;;10342780;28;20054;-87
2023/06/15 23:48:23;;;;;;;11.80;7.47;;;;;;;;;;10325734;28;20042;-86
2023/06/15 23:53:24;;;;;;;11.13;7.30;;;;;;;;;;10328289;28;20032;-87
2023/06/15 23:58:25;;;;;;;10.90;7.70;;;;;;;;;;10337809;28;20081;-87
